sensor_id;sensor_type;location;lat;lon;timestamp;temperature;humidity
29917;DHT22;16786;49.466;11.068;2023-02-26T00:01:38;-0.70;99.90
29917;DHT22;16786;49.466;11.068;2023-02-26T00:04:07;-0.70;99.90
29917;DHT22;16786;49.466;11.068;2023-02-26T00:06:37;-0.80;99.90
29917;DHT22;16786;49.466;11.068;2023-02-26T00:09:05;-0.80;99.90
29917;DHT22;16786;49.466;11.068;2023-02-26T00:11:33;-0.80;99.90
29917;DHT22;16786;49.466;11.068;2023-02-26T00:14:01;-0.90;99.90
29917;DHT22;16786;49.466;11.068;2023-02-26T00:16:31;-0.90;99.90
29917;DHT22;16786;49.466;11.068;2023-02-26T00:19:01;-0.90;99.90
29917;DHT22;16786;49.466;11.068;2023-02-26T00:21:31;-1.00;99.90
29917;DHT22;16786;49.466;11.068;2023-02-26T00:23:59;-0.90;99.90
29917;DHT22;16786;49.466;11.068;2023-02-26T00:26:30;-1.00;99.90
29917;DHT22;16786;49.466;11.068;2023-02-26T00:28:59;-1.00;99.90
29917;DHT22;16786;49.466;11.068;2023-02-26T00:31:26;-1.00;99.90
29917;DHT22;16786;49.466;11.068;2023-02-26T00:33:55;-1.10;99.90
29917;DHT22;16786;49.466;11.068;2023-02-26T00:36:36;-1.10;99.90
29917;DHT22;16786;49.466;11.068;2023-02-26T00:41:53;-1.20;99.90
29917;DHT22;16786;49.466;11.068;2023-02-26T00:44:20;-1.20;99.90
29917;DHT22;16786;49.466;11.068;2023-02-26T00:46:50;-1.10;99.90
29917;DHT22;16786;49.466;11.068;2023-02-26T00:52:27;-1.10;99.90
29917;DHT22;16786;49.466;11.068;2023-02-26T00:54:56;-1.10;99.90
29917;DHT22;16786;49.466;11.068;2023-02-26T00:57:24;-1.20;99.90
29917;DHT22;16786;49.466;11.068;2023-02-26T00:59:52;-1.20;99.90
29917;DHT22;16786;49.466;11.068;2023-02-26T01:02:21;-1.20;99.90
29917;DHT22;16786;49.466;11.068;2023-02-26T01:04:50;-1.30;99.90
29917;DHT22;16786;49.466;11.068;2023-02-26T01:07:21;-1.30;99.90
29917;DHT22;16786;49.466;11.068;2023-02-26T01:09:55;-1.40;99.90
29917;DHT22;16786;49.466;11.068;2023-02-26T01:12:23;-1.40;99.90
29917;DHT22;16786;49.466;11.068;2023-02-26T01:14:53;-1.40;99.90
29917;DHT22;16786;49.466;11.068;2023-02-26T01:20:01;-1.50;99.90
29917;DHT22;16786;49.466;11.068;2023-02-26T01:22:53;-1.60;99.90
29917;DHT22;16786;49.466;11.068;2023-02-26T01:25:29;-1.60;99.90
29917;DHT22;16786;49.466;11.068;2023-02-26T01:27:58;-1.60;99.90
29917;DHT22;16786;49.466;11.068;2023-02-26T01:30:26;-1.70;99.90
29917;DHT22;16786;49.466;11.068;2023-02-26T01:32:57;-1.70;99.90
29917;DHT22;16786;49.466;11.068;2023-02-26T01:46:38;-1.80;99.90
29917;DHT22;16786;49.466;11.068;2023-02-26T01:49:04;-1.80;99.90
29917;DHT22;16786;49.466;11.068;2023-02-26T01:54:11;-1.90;99.90
29917;DHT22;16786;49.466;11.068;2023-02-26T01:56:40;-1.90;99.90
29917;DHT22;16786;49.466;11.068;2023-02-26T01:59:10;-1.90;99.90
29917;DHT22;16786;49.466;11.068;2023-02-26T02:01:40;-1.90;99.90
29917;DHT22;16786;49.466;11.068;2023-02-26T02:04:13;-1.90;99.90
29917;DHT22;16786;49.466;11.068;2023-02-26T02:06:43;-2.00;99.90
29917;DHT22;16786;49.466;11.068;2023-02-26T02:09:12;-2.00;99.90
29917;DHT22;16786;49.466;11.068;2023-02-26T02:11:53;-2.00;99.90
29917;DHT22;16786;49.466;11.068;2023-02-26T02:14:52;-2.00;99.90
29917;DHT22;16786;49.466;11.068;2023-02-26T02:26:03;-2.20;99.90
29917;DHT22;16786;49.466;11.068;2023-02-26T02:28:36;-2.20;99.90
29917;DHT22;16786;49.466;11.068;2023-02-26T02:31:30;-2.20;99.90
29917;DHT22;16786;49.466;11.068;2023-02-26T02:39:46;-2.20;99.90
29917;DHT22;16786;49.466;11.068;2023-02-26T02:42:27;-2.30;99.90
29917;DHT22;16786;49.466;11.068;2023-02-26T02:45:20;-2.20;99.90
29917;DHT22;16786;49.466;11.068;2023-02-26T02:47:58;-2.20;99.90
29917;DHT22;16786;49.466;11.068;2023-02-26T02:50:34;-2.10;99.90
29917;DHT22;16786;49.466;11.068;2023-02-26T02:55:45;-2.10;99.90
29917;DHT22;16786;49.466;11.068;2023-02-26T02:58:17;-2.20;99.90
29917;DHT22;16786;49.466;11.068;2023-02-26T03:00:52;-2.20;99.90
29917;DHT22;16786;49.466;11.068;2023-02-26T03:06:15;-2.10;99.90
29917;DHT22;16786;49.466;11.068;2023-02-26T03:08:45;-2.10;99.90
29917;DHT22;16786;49.466;11.068;2023-02-26T03:11:15;-2.00;99.90
29917;DHT22;16786;49.466;11.068;2023-02-26T03:13:43;-2.00;99.90
29917;DHT22;16786;49.466;11.068;2023-02-26T03:16:51;-2.00;99.90
29917;DHT22;16786;49.466;11.068;2023-02-26T03:25:15;-2.30;99.90
29917;DHT22;16786;49.466;11.068;2023-02-26T03:30:52;-2.30;99.90
29917;DHT22;16786;49.466;11.068;2023-02-26T03:33:30;-2.40;99.90
29917;DHT22;16786;49.466;11.068;2023-02-26T03:36:05;-2.40;99.90
29917;DHT22;16786;49.466;11.068;2023-02-26T03:38:54;-2.50;99.90
29917;DHT22;16786;49.466;11.068;2023-02-26T03:41:38;-2.60;99.90
29917;DHT22;16786;49.466;11.068;2023-02-26T03:44:39;-2.60;99.90
29917;DHT22;16786;49.466;11.068;2023-02-26T03:47:12;-2.60;99.90
29917;DHT22;16786;49.466;11.068;2023-02-26T03:49:47;-2.60;99.90
29917;DHT22;16786;49.466;11.068;2023-02-26T03:52:16;-2.70;99.90
29917;DHT22;16786;49.466;11.068;2023-02-26T03:55:30;-2.70;99.90
29917;DHT22;16786;49.466;11.068;2023-02-26T03:58:22;-2.70;99.90
29917;DHT22;16786;49.466;11.068;2023-02-26T04:01:06;-2.60;99.90
29917;DHT22;16786;49.466;11.068;2023-02-26T04:03:48;-2.60;99.90
29917;DHT22;16786;49.466;11.068;2023-02-26T04:06:16;-2.60;99.90
29917;DHT22;16786;49.466;11.068;2023-02-26T04:08:46;-2.60;99.90
29917;DHT22;16786;49.466;11.068;2023-02-26T04:11:17;-2.50;99.90
29917;DHT22;16786;49.466;11.068;2023-02-26T04:13:45;-2.50;99.90
29917;DHT22;16786;49.466;11.068;2023-02-26T04:16:13;-2.40;99.90
29917;DHT22;16786;49.466;11.068;2023-02-26T04:18:41;-2.20;99.90
29917;DHT22;16786;49.466;11.068;2023-02-26T04:21:13;-2.10;99.90
29917;DHT22;16786;49.466;11.068;2023-02-26T04:23:42;-2.00;99.90
29917;DHT22;16786;49.466;11.068;2023-02-26T04:26:09;-1.90;99.90
29917;DHT22;16786;49.466;11.068;2023-02-26T04:28:39;-1.80;99.90
29917;DHT22;16786;49.466;11.068;2023-02-26T04:31:07;-1.80;99.90
29917;DHT22;16786;49.466;11.068;2023-02-26T04:33:37;-1.70;99.90
29917;DHT22;16786;49.466;11.068;2023-02-26T04:36:05;-1.70;99.90
29917;DHT22;16786;49.466;11.068;2023-02-26T04:38:33;-1.60;99.90
29917;DHT22;16786;49.466;11.068;2023-02-26T04:41:00;-1.60;99.90
29917;DHT22;16786;49.466;11.068;2023-02-26T04:43:28;-1.50;99.90
29917;DHT22;16786;49.466;11.068;2023-02-26T04:46:16;-1.40;99.90
29917;DHT22;16786;49.466;11.068;2023-02-26T04:48:44;-1.40;99.90
29917;DHT22;16786;49.466;11.068;2023-02-26T04:51:11;-1.40;99.90
29917;DHT22;16786;49.466;11.068;2023-02-26T04:53:39;-1.40;99.90
29917;DHT22;16786;49.466;11.068;2023-02-26T04:56:06;-1.40;99.90
29917;DHT22;16786;49.466;11.068;2023-02-26T04:58:34;-1.30;99.90
29917;DHT22;16786;49.466;11.068;2023-02-26T05:01:06;-1.40;99.90
29917;DHT22;16786;49.466;11.068;2023-02-26T05:03:34;-1.30;99.90
29917;DHT22;16786;49.466;11.068;2023-02-26T05:06:01;-1.30;99.90
29917;DHT22;16786;49.466;11.068;2023-02-26T05:08:28;-1.30;99.90
29917;DHT22;16786;49.466;11.068;2023-02-26T05:10:56;-1.30;99.90
29917;DHT22;16786;49.466;11.068;2023-02-26T05:13:23;-1.30;99.90
29917;DHT22;16786;49.466;11.068;2023-02-26T05:15:52;-1.30;99.90
29917;DHT22;16786;49.466;11.068;2023-02-26T05:18:21;-1.30;99.90
29917;DHT22;16786;49.466;11.068;2023-02-26T05:20:53;-1.30;99.90
29917;DHT22;16786;49.466;11.068;2023-02-26T05:23:21;-1.30;99.90
29917;DHT22;16786;49.466;11.068;2023-02-26T05:25:48;-1.30;99.90
29917;DHT22;16786;49.466;11.068;2023-02-26T05:28:17;-1.40;99.90
29917;DHT22;16786;49.466;11.068;2023-02-26T05:30:44;-1.40;99.90
29917;DHT22;16786;49.466;11.068;2023-02-26T05:33:11;-1.30;99.90
29917;DHT22;16786;49.466;11.068;2023-02-26T05:35:39;-1.30;99.90
29917;DHT22;16786;49.466;11.068;2023-02-26T05:38:06;-1.30;99.90
29917;DHT22;16786;49.466;11.068;2023-02-26T05:40:33;-1.20;99.90
29917;DHT22;16786;49.466;11.068;2023-02-26T05:43:01;-1.20;99.90
29917;DHT22;16786;49.466;11.068;2023-02-26T05:45:28;-1.20;99.90
29917;DHT22;16786;49.466;11.068;2023-02-26T05:47:55;-1.20;99.90
29917;DHT22;16786;49.466;11.068;2023-02-26T05:50:23;-1.20;99.90
29917;DHT22;16786;49.466;11.068;2023-02-26T05:52:50;-1.10;99.90
29917;DHT22;16786;49.466;11.068;2023-02-26T05:55:18;-1.10;99.90
29917;DHT22;16786;49.466;11.068;2023-02-26T05:57:45;-1.10;99.90
29917;DHT22;16786;49.466;11.068;2023-02-26T06:00:12;-1.00;99.90
29917;DHT22;16786;49.466;11.068;2023-02-26T06:02:40;-1.00;99.90
29917;DHT22;16786;49.466;11.068;2023-02-26T06:05:08;-1.00;99.90
29917;DHT22;16786;49.466;11.068;2023-02-26T06:07:35;-1.00;99.90
29917;DHT22;16786;49.466;11.068;2023-02-26T06:10:03;-1.00;99.90
29917;DHT22;16786;49.466;11.068;2023-02-26T06:12:30;-1.00;99.90
29917;DHT22;16786;49.466;11.068;2023-02-26T06:14:58;-1.00;99.90
29917;DHT22;16786;49.466;11.068;2023-02-26T06:17:25;-1.10;99.90
29917;DHT22;16786;49.466;11.068;2023-02-26T06:19:53;-1.10;99.90
29917;DHT22;16786;49.466;11.068;2023-02-26T06:22:20;-1.10;99.90
29917;DHT22;16786;49.466;11.068;2023-02-26T06:24:47;-1.00;99.90
29917;DHT22;16786;49.466;11.068;2023-02-26T06:27:15;-1.00;99.90
29917;DHT22;16786;49.466;11.068;2023-02-26T06:29:42;-1.00;99.90
29917;DHT22;16786;49.466;11.068;2023-02-26T06:32:09;-1.00;99.90
29917;DHT22;16786;49.466;11.068;2023-02-26T06:34:37;-1.00;99.90
29917;DHT22;16786;49.466;11.068;2023-02-26T06:37:04;-1.00;99.90
29917;DHT22;16786;49.466;11.068;2023-02-26T06:39:31;-0.90;99.90
29917;DHT22;16786;49.466;11.068;2023-02-26T06:41:59;-0.90;99.90
29917;DHT22;16786;49.466;11.068;2023-02-26T06:44:26;-0.90;99.90
29917;DHT22;16786;49.466;11.068;2023-02-26T06:46:53;-0.90;99.90
29917;DHT22;16786;49.466;11.068;2023-02-26T06:49:21;-0.90;99.90
29917;DHT22;16786;49.466;11.068;2023-02-26T06:51:48;-0.90;99.90
29917;DHT22;16786;49.466;11.068;2023-02-26T06:54:16;-0.80;99.90
29917;DHT22;16786;49.466;11.068;2023-02-26T06:56:43;-0.70;99.90
29917;DHT22;16786;49.466;11.068;2023-02-26T06:59:10;-0.70;99.90
29917;DHT22;16786;49.466;11.068;2023-02-26T07:01:37;-0.60;99.90
29917;DHT22;16786;49.466;11.068;2023-02-26T07:04:05;-0.70;99.90
29917;DHT22;16786;49.466;11.068;2023-02-26T07:06:33;-0.60;99.90
29917;DHT22;16786;49.466;11.068;2023-02-26T07:09:00;-0.60;99.90
29917;DHT22;16786;49.466;11.068;2023-02-26T07:11:27;-0.60;99.90
29917;DHT22;16786;49.466;11.068;2023-02-26T07:13:55;-0.70;99.90
29917;DHT22;16786;49.466;11.068;2023-02-26T07:16:22;-0.70;99.90
29917;DHT22;16786;49.466;11.068;2023-02-26T07:18:50;-0.80;99.90
29917;DHT22;16786;49.466;11.068;2023-02-26T07:21:17;-0.80;99.90
29917;DHT22;16786;49.466;11.068;2023-02-26T07:23:45;-0.80;99.90
29917;DHT22;16786;49.466;11.068;2023-02-26T07:26:12;-0.70;99.90
29917;DHT22;16786;49.466;11.068;2023-02-26T07:28:39;-0.60;99.90
29917;DHT22;16786;49.466;11.068;2023-02-26T07:31:06;-0.50;99.90
29917;DHT22;16786;49.466;11.068;2023-02-26T07:33:34;-0.40;99.90
29917;DHT22;16786;49.466;11.068;2023-02-26T07:36:01;-0.30;99.90
29917;DHT22;16786;49.466;11.068;2023-02-26T07:38:29;-0.10;99.90
29917;DHT22;16786;49.466;11.068;2023-02-26T07:40:56;-0.10;99.90
29917;DHT22;16786;49.466;11.068;2023-02-26T07:43:23;-0.10;99.90
29917;DHT22;16786;49.466;11.068;2023-02-26T07:45:51;0.10;99.90
29917;DHT22;16786;49.466;11.068;2023-02-26T07:48:20;0.20;99.90
29917;DHT22;16786;49.466;11.068;2023-02-26T07:50:51;0.30;99.90
29917;DHT22;16786;49.466;11.068;2023-02-26T07:53:19;0.40;99.90
29917;DHT22;16786;49.466;11.068;2023-02-26T07:55:46;0.50;99.90
29917;DHT22;16786;49.466;11.068;2023-02-26T07:58:13;0.60;99.90
29917;DHT22;16786;49.466;11.068;2023-02-26T08:00:41;0.70;99.90
29917;DHT22;16786;49.466;11.068;2023-02-26T08:03:08;0.90;99.90
29917;DHT22;16786;49.466;11.068;2023-02-26T08:05:35;0.90;99.90
29917;DHT22;16786;49.466;11.068;2023-02-26T08:08:03;0.90;99.90
29917;DHT22;16786;49.466;11.068;2023-02-26T08:10:30;0.90;99.90
29917;DHT22;16786;49.466;11.068;2023-02-26T08:12:58;1.10;99.90
29917;DHT22;16786;49.466;11.068;2023-02-26T08:15:25;1.20;99.90
29917;DHT22;16786;49.466;11.068;2023-02-26T08:17:52;1.20;99.90
29917;DHT22;16786;49.466;11.068;2023-02-26T08:20:23;1.30;99.90
29917;DHT22;16786;49.466;11.068;2023-02-26T08:22:51;1.20;99.90
29917;DHT22;16786;49.466;11.068;2023-02-26T08:25:18;1.30;99.90
29917;DHT22;16786;49.466;11.068;2023-02-26T08:27:46;1.50;99.90
29917;DHT22;16786;49.466;11.068;2023-02-26T08:30:13;1.50;99.90
29917;DHT22;16786;49.466;11.068;2023-02-26T08:32:41;1.50;99.90
29917;DHT22;16786;49.466;11.068;2023-02-26T08:35:09;1.60;99.90
29917;DHT22;16786;49.466;11.068;2023-02-26T08:37:37;1.50;99.90
29917;DHT22;16786;49.466;11.068;2023-02-26T08:40:06;1.60;99.90
29917;DHT22;16786;49.466;11.068;2023-02-26T08:42:40;1.60;99.90
29917;DHT22;16786;49.466;11.068;2023-02-26T08:45:08;1.60;99.90
29917;DHT22;16786;49.466;11.068;2023-02-26T08:47:35;1.70;99.90
29917;DHT22;16786;49.466;11.068;2023-02-26T08:50:14;1.70;99.90
29917;DHT22;16786;49.466;11.068;2023-02-26T08:52:42;1.90;99.90
29917;DHT22;16786;49.466;11.068;2023-02-26T08:55:09;1.90;99.90
29917;DHT22;16786;49.466;11.068;2023-02-26T08:57:37;1.90;99.90
29917;DHT22;16786;49.466;11.068;2023-02-26T09:00:05;1.90;99.90
29917;DHT22;16786;49.466;11.068;2023-02-26T09:02:37;2.10;99.90
29917;DHT22;16786;49.466;11.068;2023-02-26T09:05:05;2.30;99.90
29917;DHT22;16786;49.466;11.068;2023-02-26T09:07:32;2.40;99.90
29917;DHT22;16786;49.466;11.068;2023-02-26T09:09:59;2.40;99.90
29917;DHT22;16786;49.466;11.068;2023-02-26T09:12:26;2.60;99.90
29917;DHT22;16786;49.466;11.068;2023-02-26T09:14:54;2.80;99.90
29917;DHT22;16786;49.466;11.068;2023-02-26T09:17:21;2.90;99.90
29917;DHT22;16786;49.466;11.068;2023-02-26T09:19:48;2.90;99.90
29917;DHT22;16786;49.466;11.068;2023-02-26T09:22:16;3.00;99.90
29917;DHT22;16786;49.466;11.068;2023-02-26T09:24:43;3.10;99.90
29917;DHT22;16786;49.466;11.068;2023-02-26T09:27:10;3.20;99.90
29917;DHT22;16786;49.466;11.068;2023-02-26T09:29:38;3.60;99.90
29917;DHT22;16786;49.466;11.068;2023-02-26T09:32:05;3.80;99.90
29917;DHT22;16786;49.466;11.068;2023-02-26T09:34:35;4.00;99.90
29917;DHT22;16786;49.466;11.068;2023-02-26T09:37:03;4.20;99.90
29917;DHT22;16786;49.466;11.068;2023-02-26T09:39:31;4.40;99.90
29917;DHT22;16786;49.466;11.068;2023-02-26T09:44:37;4.60;99.90
29917;DHT22;16786;49.466;11.068;2023-02-26T09:47:18;4.70;99.90
29917;DHT22;16786;49.466;11.068;2023-02-26T09:49:54;4.80;99.90
29917;DHT22;16786;49.466;11.068;2023-02-26T09:52:39;4.70;99.90
29917;DHT22;16786;49.466;11.068;2023-02-26T09:55:14;4.70;99.90
29917;DHT22;16786;49.466;11.068;2023-02-26T09:57:45;4.70;99.90
29917;DHT22;16786;49.466;11.068;2023-02-26T10:00:43;4.60;99.90
29917;DHT22;16786;49.466;11.068;2023-02-26T10:12:07;4.20;99.90
29917;DHT22;16786;49.466;11.068;2023-02-26T10:17:50;4.50;99.90
29917;DHT22;16786;49.466;11.068;2023-02-26T10:20:42;4.30;99.90
29917;DHT22;16786;49.466;11.068;2023-02-26T10:23:38;4.40;99.90
29917;DHT22;16786;49.466;11.068;2023-02-26T10:37:03;4.30;99.90
29917;DHT22;16786;49.466;11.068;2023-02-26T10:39:52;4.00;99.90
29917;DHT22;16786;49.466;11.068;2023-02-26T10:42:27;3.80;99.90
29917;DHT22;16786;49.466;11.068;2023-02-26T10:50:25;4.10;99.90
29917;DHT22;16786;49.466;11.068;2023-02-26T10:52:54;4.30;99.90
29917;DHT22;16786;49.466;11.068;2023-02-26T10:55:40;4.80;99.90
29917;DHT22;16786;49.466;11.068;2023-02-26T10:58:22;5.20;99.90
29917;DHT22;16786;49.466;11.068;2023-02-26T11:00:54;5.50;99.90
29917;DHT22;16786;49.466;11.068;2023-02-26T11:03:41;5.20;99.90
29917;DHT22;16786;49.466;11.068;2023-02-26T11:06:12;5.00;99.90
29917;DHT22;16786;49.466;11.068;2023-02-26T11:08:43;4.80;99.90
29917;DHT22;16786;49.466;11.068;2023-02-26T11:12:14;4.50;99.90
29917;DHT22;16786;49.466;11.068;2023-02-26T11:14:21;4.50;99.90
29917;DHT22;16786;49.466;11.068;2023-02-26T11:16:55;4.50;99.90
29917;DHT22;16786;49.466;11.068;2023-02-26T11:19:30;4.60;99.90
29917;DHT22;16786;49.466;11.068;2023-02-26T11:21:59;4.90;99.90
29917;DHT22;16786;49.466;11.068;2023-02-26T11:24:35;5.10;99.90
29917;DHT22;16786;49.466;11.068;2023-02-26T11:27:05;5.20;99.90
29917;DHT22;16786;49.466;11.068;2023-02-26T11:29:39;5.50;99.90
29917;DHT22;16786;49.466;11.068;2023-02-26T11:32:19;5.80;99.90
29917;DHT22;16786;49.466;11.068;2023-02-26T11:34:49;6.00;99.90
29917;DHT22;16786;49.466;11.068;2023-02-26T11:37:21;6.00;99.90
29917;DHT22;16786;49.466;11.068;2023-02-26T11:40:05;6.00;99.90
29917;DHT22;16786;49.466;11.068;2023-02-26T11:42:44;6.40;99.90
29917;DHT22;16786;49.466;11.068;2023-02-26T11:45:16;6.70;99.90
29917;DHT22;16786;49.466;11.068;2023-02-26T11:47:46;6.80;99.90
29917;DHT22;16786;49.466;11.068;2023-02-26T11:50:19;6.80;99.90
29917;DHT22;16786;49.466;11.068;2023-02-26T11:53:03;6.60;99.90
29917;DHT22;16786;49.466;11.068;2023-02-26T11:55:34;6.80;99.90
29917;DHT22;16786;49.466;11.068;2023-02-26T11:58:15;7.10;99.90
29917;DHT22;16786;49.466;11.068;2023-02-26T12:00:43;7.40;99.90
29917;DHT22;16786;49.466;11.068;2023-02-26T12:03:25;7.60;99.90
29917;DHT22;16786;49.466;11.068;2023-02-26T12:05:57;7.80;99.90
29917;DHT22;16786;49.466;11.068;2023-02-26T12:08:32;7.40;99.90
29917;DHT22;16786;49.466;11.068;2023-02-26T12:11:29;7.30;99.90
29917;DHT22;16786;49.466;11.068;2023-02-26T12:28:34;6.10;99.90
29917;DHT22;16786;49.466;11.068;2023-02-26T12:34:29;5.80;99.90
29917;DHT22;16786;49.466;11.068;2023-02-26T12:37:09;5.80;99.90
29917;DHT22;16786;49.466;11.068;2023-02-26T12:39:55;5.70;99.90
29917;DHT22;16786;49.466;11.068;2023-02-26T12:53:37;4.90;99.90
29917;DHT22;16786;49.466;11.068;2023-02-26T13:01:34;5.20;99.90
29917;DHT22;16786;49.466;11.068;2023-02-26T13:08:07;5.20;99.90
29917;DHT22;16786;49.466;11.068;2023-02-26T13:10:09;6.20;99.90
29917;DHT22;16786;49.466;11.068;2023-02-26T13:13:12;7.30;99.90
29917;DHT22;16786;49.466;11.068;2023-02-26T13:21:07;10.10;99.90
29917;DHT22;16786;49.466;11.068;2023-02-26T13:26:14;11.80;96.80
29917;DHT22;16786;49.466;11.068;2023-02-26T13:29:31;12.00;96.20
29917;DHT22;16786;49.466;11.068;2023-02-26T13:37:26;16.40;84.60
29917;DHT22;16786;49.466;11.068;2023-02-26T13:50:51;11.30;90.80
29917;DHT22;16786;49.466;11.068;2023-02-26T13:55:51;14.00;86.70
29917;DHT22;16786;49.466;11.068;2023-02-26T14:01:06;15.30;80.80
29917;DHT22;16786;49.466;11.068;2023-02-26T14:06:36;17.50;74.50
29917;DHT22;16786;49.466;11.068;2023-02-26T14:15:26;13.30;76.50
29917;DHT22;16786;49.466;11.068;2023-02-26T14:18:10;12.10;79.60
29917;DHT22;16786;49.466;11.068;2023-02-26T14:20:45;13.60;78.40
29917;DHT22;16786;49.466;11.068;2023-02-26T14:23:27;12.40;78.30
29917;DHT22;16786;49.466;11.068;2023-02-26T14:26:04;12.10;79.30
29917;DHT22;16786;49.466;11.068;2023-02-26T14:28:40;13.90;80.30
29917;DHT22;16786;49.466;11.068;2023-02-26T14:31:14;15.00;75.00
29917;DHT22;16786;49.466;11.068;2023-02-26T14:39:32;14.50;74.90
29917;DHT22;16786;49.466;11.068;2023-02-26T14:42:13;15.20;75.50
29917;DHT22;16786;49.466;11.068;2023-02-26T14:44:47;16.90;73.70
29917;DHT22;16786;49.466;11.068;2023-02-26T14:47:16;16.40;72.60
29917;DHT22;16786;49.466;11.068;2023-02-26T14:49:45;15.70;70.30
29917;DHT22;16786;49.466;11.068;2023-02-26T14:52:28;14.00;71.70
29917;DHT22;16786;49.466;11.068;2023-02-26T14:55:30;13.10;73.30
29917;DHT22;16786;49.466;11.068;2023-02-26T15:00:41;12.90;73.40
29917;DHT22;16786;49.466;11.068;2023-02-26T15:06:17;10.20;79.00
29917;DHT22;16786;49.466;11.068;2023-02-26T15:08:55;8.80;83.40
29917;DHT22;16786;49.466;11.068;2023-02-26T15:11:40;7.90;85.60
29917;DHT22;16786;49.466;11.068;2023-02-26T15:14:34;7.30;87.10
29917;DHT22;16786;49.466;11.068;2023-02-26T15:22:33;5.60;93.40
29917;DHT22;16786;49.466;11.068;2023-02-26T15:25:06;5.30;93.50
29917;DHT22;16786;49.466;11.068;2023-02-26T15:27:37;4.90;94.70
29917;DHT22;16786;49.466;11.068;2023-02-26T15:30:05;4.80;94.90
29917;DHT22;16786;49.466;11.068;2023-02-26T15:32:36;4.40;96.20
29917;DHT22;16786;49.466;11.068;2023-02-26T15:35:17;4.20;97.00
29917;DHT22;16786;49.466;11.068;2023-02-26T15:37:53;4.00;99.00
29917;DHT22;16786;49.466;11.068;2023-02-26T15:40:24;3.80;99.90
29917;DHT22;16786;49.466;11.068;2023-02-26T15:42:54;3.60;99.90
29917;DHT22;16786;49.466;11.068;2023-02-26T15:47:58;3.30;99.90
29917;DHT22;16786;49.466;11.068;2023-02-26T15:50:28;3.30;99.90
29917;DHT22;16786;49.466;11.068;2023-02-26T15:53:00;3.30;99.90
29917;DHT22;16786;49.466;11.068;2023-02-26T15:55:33;3.20;99.90
29917;DHT22;16786;49.466;11.068;2023-02-26T15:58:04;3.10;99.90
29917;DHT22;16786;49.466;11.068;2023-02-26T16:00:35;3.00;99.90
29917;DHT22;16786;49.466;11.068;2023-02-26T16:03:02;2.90;99.90
29917;DHT22;16786;49.466;11.068;2023-02-26T16:05:30;2.80;99.90
29917;DHT22;16786;49.466;11.068;2023-02-26T16:07:58;2.90;99.90
29917;DHT22;16786;49.466;11.068;2023-02-26T16:10:40;2.70;99.90
29917;DHT22;16786;49.466;11.068;2023-02-26T16:13:14;2.70;99.90
29917;DHT22;16786;49.466;11.068;2023-02-26T16:15:43;2.70;99.90
29917;DHT22;16786;49.466;11.068;2023-02-26T16:18:16;2.70;99.90
29917;DHT22;16786;49.466;11.068;2023-02-26T16:20:47;2.50;99.90
29917;DHT22;16786;49.466;11.068;2023-02-26T16:23:20;2.30;99.90
29917;DHT22;16786;49.466;11.068;2023-02-26T16:25:54;2.20;99.90
29917;DHT22;16786;49.466;11.068;2023-02-26T16:28:31;2.00;99.90
29917;DHT22;16786;49.466;11.068;2023-02-26T16:31:00;1.90;99.90
29917;DHT22;16786;49.466;11.068;2023-02-26T16:33:34;1.70;99.90
29917;DHT22;16786;49.466;11.068;2023-02-26T16:36:11;1.60;99.90
29917;DHT22;16786;49.466;11.068;2023-02-26T16:38:46;1.50;99.90
29917;DHT22;16786;49.466;11.068;2023-02-26T16:41:20;1.40;99.90
29917;DHT22;16786;49.466;11.068;2023-02-26T16:43:53;1.30;99.90
29917;DHT22;16786;49.466;11.068;2023-02-26T16:49:04;1.10;99.90
29917;DHT22;16786;49.466;11.068;2023-02-26T16:51:37;1.00;99.90
29917;DHT22;16786;49.466;11.068;2023-02-26T16:54:22;0.80;99.90
29917;DHT22;16786;49.466;11.068;2023-02-26T16:57:07;0.80;99.90
29917;DHT22;16786;49.466;11.068;2023-02-26T16:59:38;0.70;99.90
29917;DHT22;16786;49.466;11.068;2023-02-26T17:02:13;0.60;99.90
29917;DHT22;16786;49.466;11.068;2023-02-26T17:04:42;0.50;99.90
29917;DHT22;16786;49.466;11.068;2023-02-26T17:07:25;0.40;99.90
29917;DHT22;16786;49.466;11.068;2023-02-26T17:09:57;0.30;99.90
29917;DHT22;16786;49.466;11.068;2023-02-26T17:12:45;0.30;99.90
29917;DHT22;16786;49.466;11.068;2023-02-26T17:15:35;0.20;99.90
29917;DHT22;16786;49.466;11.068;2023-02-26T17:18:03;0.10;99.90
29917;DHT22;16786;49.466;11.068;2023-02-26T17:20:39;0.00;99.90
29917;DHT22;16786;49.466;11.068;2023-02-26T17:23:08;0.00;99.90
29917;DHT22;16786;49.466;11.068;2023-02-26T17:25:37;-0.10;99.90
29917;DHT22;16786;49.466;11.068;2023-02-26T17:28:06;-0.10;99.90
29917;DHT22;16786;49.466;11.068;2023-02-26T17:30:34;-0.20;99.90
29917;DHT22;16786;49.466;11.068;2023-02-26T17:33:01;-0.20;99.90
29917;DHT22;16786;49.466;11.068;2023-02-26T17:35:33;-0.20;99.90
29917;DHT22;16786;49.466;11.068;2023-02-26T17:38:01;-0.30;99.90
29917;DHT22;16786;49.466;11.068;2023-02-26T17:40:33;-0.30;99.90
29917;DHT22;16786;49.466;11.068;2023-02-26T17:43:03;-0.30;99.90
29917;DHT22;16786;49.466;11.068;2023-02-26T17:45:31;-0.30;99.90
29917;DHT22;16786;49.466;11.068;2023-02-26T17:47:59;-0.30;99.90
29917;DHT22;16786;49.466;11.068;2023-02-26T17:50:41;-0.30;99.90
29917;DHT22;16786;49.466;11.068;2023-02-26T17:53:09;-0.40;99.90
29917;DHT22;16786;49.466;11.068;2023-02-26T17:55:37;-0.40;99.90
29917;DHT22;16786;49.466;11.068;2023-02-26T17:58:09;-0.50;99.90
29917;DHT22;16786;49.466;11.068;2023-02-26T18:00:38;-0.60;99.90
29917;DHT22;16786;49.466;11.068;2023-02-26T18:03:09;-0.60;99.90
29917;DHT22;16786;49.466;11.068;2023-02-26T18:05:37;-0.60;99.90
29917;DHT22;16786;49.466;11.068;2023-02-26T18:08:14;-0.60;99.90
29917;DHT22;16786;49.466;11.068;2023-02-26T18:10:42;-0.60;99.90
29917;DHT22;16786;49.466;11.068;2023-02-26T18:13:10;-0.70;99.90
29917;DHT22;16786;49.466;11.068;2023-02-26T18:15:37;-0.70;99.90
29917;DHT22;16786;49.466;11.068;2023-02-26T18:18:05;-0.70;99.90
29917;DHT22;16786;49.466;11.068;2023-02-26T18:20:32;-0.70;99.90
29917;DHT22;16786;49.466;11.068;2023-02-26T18:23:00;-0.80;99.90
29917;DHT22;16786;49.466;11.068;2023-02-26T18:25:27;-0.80;99.90
29917;DHT22;16786;49.466;11.068;2023-02-26T18:27:55;-0.80;99.90
29917;DHT22;16786;49.466;11.068;2023-02-26T18:30:29;-0.80;99.90
29917;DHT22;16786;49.466;11.068;2023-02-26T18:32:57;-0.80;99.90
29917;DHT22;16786;49.466;11.068;2023-02-26T18:35:25;-0.80;99.90
29917;DHT22;16786;49.466;11.068;2023-02-26T18:37:54;-0.70;99.90
29917;DHT22;16786;49.466;11.068;2023-02-26T18:40:23;-0.80;99.90
29917;DHT22;16786;49.466;11.068;2023-02-26T18:42:51;-0.80;99.90
29917;DHT22;16786;49.466;11.068;2023-02-26T18:45:19;-0.80;99.90
29917;DHT22;16786;49.466;11.068;2023-02-26T18:47:47;-0.80;99.90
29917;DHT22;16786;49.466;11.068;2023-02-26T18:50:16;-0.90;99.90
29917;DHT22;16786;49.466;11.068;2023-02-26T18:52:44;-0.90;99.90
29917;DHT22;16786;49.466;11.068;2023-02-26T18:55:11;-0.90;99.90